createdAt,value
2023-03-12T00:01:30.262Z,1.22
2023-03-12T00:03:57.107Z,1.22
2023-03-12T00:06:23.636Z,1.24
2023-03-12T00:08:50.150Z,1.26
2023-03-12T00:11:18.816Z,1.25
2023-03-12T00:13:48.776Z,1.25
2023-03-12T00:16:15.769Z,1.26
2023-03-12T00:18:43.968Z,1.25
2023-03-12T00:21:10.773Z,1.26
2023-03-12T00:23:37.526Z,1.27
2023-03-12T00:26:06.373Z,1.28
2023-03-12T00:28:32.951Z,1.30
2023-03-12T00:30:59.481Z,1.30
2023-03-12T00:33:26.317Z,1.31
2023-03-12T00:35:53.564Z,1.35
2023-03-12T00:38:19.971Z,1.33
2023-03-12T00:40:46.769Z,1.35
2023-03-12T00:43:13.703Z,1.36
2023-03-12T00:45:40.261Z,1.38
2023-03-12T00:48:06.928Z,1.38
2023-03-12T00:50:33.362Z,1.39
2023-03-12T00:53:00.154Z,1.39
2023-03-12T00:55:26.569Z,1.40
2023-03-12T00:57:52.971Z,1.39
2023-03-12T01:00:20.071Z,1.38
2023-03-12T01:02:46.507Z,1.37
2023-03-12T01:05:13.630Z,1.37
2023-03-12T01:07:40.549Z,1.34
2023-03-12T01:10:08.830Z,1.32
2023-03-12T01:12:35.581Z,1.31
2023-03-12T01:15:01.998Z,1.30
2023-03-12T01:17:28.435Z,1.28
2023-03-12T01:19:54.838Z,1.27
2023-03-12T01:22:21.620Z,1.27
2023-03-12T01:24:48.289Z,1.25
2023-03-12T01:27:14.744Z,1.27
2023-03-12T01:29:41.552Z,1.27
2023-03-12T01:32:08.348Z,1.27
2023-03-12T01:34:35.547Z,1.28
2023-03-12T01:37:02.444Z,1.27
2023-03-12T01:39:29.460Z,1.30
2023-03-12T01:41:56.034Z,1.29
2023-03-12T01:44:22.450Z,1.31
2023-03-12T01:46:48.883Z,1.32
2023-03-12T01:49:21.918Z,1.32
2023-03-12T01:51:58.885Z,1.32
2023-03-12T01:54:29.767Z,1.34
2023-03-12T01:56:57.244Z,1.35
2023-03-12T01:59:29.219Z,1.37
2023-03-12T02:01:55.770Z,1.38
2023-03-12T02:04:26.807Z,1.40
2023-03-12T02:07:03.153Z,1.41
2023-03-12T02:09:32.607Z,1.44
2023-03-12T02:11:59.472Z,1.45
2023-03-12T02:14:26.332Z,1.44
2023-03-12T02:16:54.387Z,1.45
2023-03-12T02:19:54.160Z,1.47
2023-03-12T02:22:21.080Z,1.48
2023-03-12T02:25:25.230Z,1.49
2023-03-12T02:27:52.687Z,1.51
2023-03-12T02:30:20.170Z,1.51
2023-03-12T02:32:50.183Z,1.52
2023-03-12T02:35:17.339Z,1.53
2023-03-12T02:37:51.875Z,1.54
2023-03-12T02:40:43.663Z,1.56
2023-03-12T02:43:11.005Z,1.56
2023-03-12T02:45:38.975Z,1.58
2023-03-12T02:48:09.081Z,1.59
2023-03-12T02:50:35.595Z,1.57
2023-03-12T02:53:02.016Z,1.57
2023-03-12T02:55:28.413Z,1.59
2023-03-12T02:57:54.797Z,1.59
2023-03-12T03:00:21.856Z,1.59
2023-03-12T03:02:48.322Z,1.59
2023-03-12T03:05:14.948Z,1.60
2023-03-12T03:07:41.402Z,1.59
2023-03-12T03:10:08.383Z,1.59
2023-03-12T03:12:36.898Z,1.60
2023-03-12T03:15:04.762Z,1.61
2023-03-12T03:17:31.228Z,1.61
2023-03-12T03:19:57.633Z,1.62
2023-03-12T03:22:24.211Z,1.63
2023-03-12T03:24:50.770Z,1.64
2023-03-12T03:27:17.242Z,1.63
2023-03-12T03:29:46.531Z,1.63
2023-03-12T03:32:13.519Z,1.63
2023-03-12T03:34:40.019Z,1.64
2023-03-12T03:37:06.482Z,1.64
2023-03-12T03:39:34.316Z,1.64
2023-03-12T03:42:00.736Z,1.65
2023-03-12T03:44:27.161Z,1.67
2023-03-12T03:46:55.420Z,1.68
2023-03-12T03:49:23.274Z,1.70
2023-03-12T03:51:51.712Z,1.70
2023-03-12T03:54:18.966Z,1.71
2023-03-12T03:56:45.534Z,1.72
2023-03-12T03:59:12.056Z,1.73
2023-03-12T04:01:38.537Z,1.75
2023-03-12T04:04:05.247Z,1.75
2023-03-12T04:06:31.810Z,1.76
2023-03-12T04:08:59.060Z,1.76
2023-03-12T04:11:26.178Z,1.76
2023-03-12T04:13:52.610Z,1.77
2023-03-12T04:16:19.390Z,1.78
2023-03-12T04:18:45.831Z,1.81
2023-03-12T04:21:13.282Z,1.81
2023-03-12T04:23:39.997Z,1.83
2023-03-12T04:26:07.290Z,1.82
2023-03-12T04:28:35.182Z,1.83
2023-03-12T04:31:04.227Z,1.85
2023-03-12T04:33:33.515Z,1.86
2023-03-12T04:36:00.491Z,1.87
2023-03-12T04:38:27.396Z,1.88
2023-03-12T04:41:09.468Z,1.90
2023-03-12T04:43:36.025Z,1.91
2023-03-12T04:46:03.283Z,1.93
2023-03-12T04:48:30.015Z,1.92
2023-03-12T04:50:56.517Z,1.92
2023-03-12T04:53:23.605Z,1.91
2023-03-12T04:55:50.298Z,1.89
2023-03-12T04:58:17.117Z,1.89
2023-03-12T05:00:43.543Z,1.88
2023-03-12T05:03:10.073Z,1.87
2023-03-12T05:05:36.865Z,1.85
2023-03-12T05:08:04.519Z,1.84
2023-03-12T05:10:31.520Z,1.85
2023-03-12T05:12:58.528Z,1.84
2023-03-12T05:15:25.103Z,1.84
2023-03-12T05:17:51.774Z,1.83
2023-03-12T05:20:18.332Z,1.85
2023-03-12T05:22:45.067Z,1.84
2023-03-12T05:25:11.873Z,1.84
2023-03-12T05:27:38.544Z,1.85
2023-03-12T05:30:06.299Z,1.85
2023-03-12T05:32:33.422Z,1.85
2023-03-12T05:34:59.848Z,1.87
2023-03-12T05:37:26.267Z,1.86
2023-03-12T05:39:54.639Z,1.88
2023-03-12T05:42:21.350Z,1.88
2023-03-12T05:44:48.024Z,1.87
2023-03-12T05:47:14.444Z,1.88
2023-03-12T05:49:40.942Z,1.89
2023-03-12T05:52:07.601Z,1.90
2023-03-12T05:54:34.412Z,1.92
2023-03-12T05:57:00.846Z,1.93
2023-03-12T05:59:27.372Z,1.95
2023-03-12T06:01:53.853Z,1.96
2023-03-12T06:04:20.366Z,1.99
2023-03-12T06:06:46.802Z,2.00
2023-03-12T06:09:13.640Z,2.00
2023-03-12T06:11:40.498Z,2.02
2023-03-12T06:14:07.003Z,2.03
2023-03-12T06:16:33.750Z,2.04
2023-03-12T06:19:02.459Z,2.04
2023-03-12T06:21:31.747Z,2.07
2023-03-12T06:23:58.532Z,2.06
2023-03-12T06:26:25.609Z,2.07
2023-03-12T06:28:52.752Z,2.07
2023-03-12T06:31:20.734Z,2.07
2023-03-12T06:33:47.734Z,2.07
2023-03-12T06:36:14.746Z,2.07
2023-03-12T06:38:41.695Z,2.06
2023-03-12T06:41:11.336Z,2.08
2023-03-12T06:43:38.601Z,2.08
2023-03-12T06:46:07.515Z,2.10
2023-03-12T06:48:36.604Z,2.10
2023-03-12T06:51:04.549Z,2.10
2023-03-12T06:53:31.960Z,2.10
2023-03-12T06:55:59.099Z,2.07
2023-03-12T06:58:25.875Z,2.09
2023-03-12T07:00:53.324Z,2.09
2023-03-12T07:03:19.896Z,2.09
2023-03-12T07:05:48.663Z,2.11
2023-03-12T07:08:15.594Z,2.11
2023-03-12T07:10:42.288Z,2.12
2023-03-12T07:13:09.175Z,2.15
2023-03-12T07:15:35.572Z,2.15
2023-03-12T07:18:05.820Z,2.15
2023-03-12T07:20:32.898Z,2.17
2023-03-12T07:23:00.270Z,2.19
2023-03-12T07:25:26.929Z,2.21
2023-03-12T07:27:53.356Z,2.20
2023-03-12T07:30:19.979Z,2.22
2023-03-12T07:32:46.396Z,2.23
2023-03-12T07:35:12.871Z,2.25
2023-03-12T07:37:40.266Z,2.26
2023-03-12T07:40:07.526Z,2.28
2023-03-12T07:42:34.716Z,2.28
2023-03-12T07:45:01.249Z,2.31
2023-03-12T07:47:27.828Z,2.31
2023-03-12T07:49:54.411Z,2.31
2023-03-12T07:52:21.040Z,2.33
2023-03-12T07:54:47.942Z,2.33
2023-03-12T07:57:14.633Z,2.36
2023-03-12T07:59:41.132Z,2.39
2023-03-12T08:02:10.186Z,2.40
2023-03-12T08:04:36.823Z,2.43
2023-03-12T08:07:03.866Z,2.45
2023-03-12T08:09:30.361Z,2.49
2023-03-12T08:11:56.808Z,2.52
2023-03-12T08:14:23.351Z,2.55
2023-03-12T08:16:50.002Z,2.57
2023-03-12T08:19:16.925Z,2.60
2023-03-12T08:21:44.064Z,2.63
2023-03-12T08:24:10.577Z,2.65
2023-03-12T08:26:37.005Z,2.66
2023-03-12T08:29:03.847Z,2.70
2023-03-12T08:31:30.305Z,2.74
2023-03-12T08:33:56.945Z,2.77
2023-03-12T08:36:23.380Z,2.81
2023-03-12T08:38:49.794Z,2.85
2023-03-12T08:41:16.193Z,2.90
2023-03-12T08:43:42.608Z,2.93
2023-03-12T08:46:11.820Z,2.97
2023-03-12T08:48:39.091Z,3.01
2023-03-12T08:51:07.412Z,3.05
2023-03-12T08:53:36.171Z,3.08
2023-03-12T08:56:04.037Z,3.14
2023-03-12T08:58:31.122Z,3.19
2023-03-12T09:00:57.868Z,3.21
2023-03-12T09:03:25.844Z,3.24
2023-03-12T09:06:03.935Z,3.30
2023-03-12T09:08:30.771Z,3.36
2023-03-12T09:10:57.444Z,3.45
2023-03-12T09:13:23.879Z,3.54
2023-03-12T09:15:50.282Z,3.63
2023-03-12T09:18:16.773Z,3.73
2023-03-12T09:20:43.489Z,3.81
2023-03-12T09:23:10.013Z,3.88
2023-03-12T09:25:36.562Z,3.95
2023-03-12T09:28:03.001Z,3.99
2023-03-12T09:30:31.109Z,4.07
2023-03-12T09:32:57.954Z,4.12
2023-03-12T09:35:24.444Z,4.21
2023-03-12T09:37:51.943Z,4.29
2023-03-12T09:40:24.050Z,4.37
2023-03-12T09:43:04.624Z,4.47
2023-03-12T09:45:36.500Z,4.58
2023-03-12T09:48:06.211Z,4.67
2023-03-12T09:50:40.244Z,4.69
2023-03-12T09:53:33.513Z,4.73
2023-03-12T09:56:09.212Z,4.79
2023-03-12T09:58:38.425Z,4.85
2023-03-12T10:01:19.383Z,4.91
2023-03-12T10:04:05.971Z,5.00
2023-03-12T10:06:39.728Z,5.09
2023-03-12T10:09:36.453Z,5.22
2023-03-12T10:12:11.696Z,5.33
2023-03-12T10:14:43.836Z,5.39
2023-03-12T10:17:33.213Z,5.43
2023-03-12T10:20:21.479Z,5.48
2023-03-12T10:23:12.888Z,5.53
2023-03-12T10:25:53.015Z,5.61
2023-03-12T10:28:30.670Z,5.71
2023-03-12T10:31:22.452Z,5.78
2023-03-12T10:34:02.883Z,5.87
2023-03-12T10:36:38.062Z,5.92
2023-03-12T10:39:12.976Z,6.02
2023-03-12T10:41:43.119Z,6.19
2023-03-12T10:44:14.458Z,6.30
2023-03-12T10:46:59.859Z,6.35
2023-03-12T10:49:33.257Z,6.42
2023-03-12T10:52:02.870Z,6.49
2023-03-12T10:54:36.169Z,6.55
2023-03-12T10:57:02.819Z,6.65
2023-03-12T10:59:32.966Z,6.74
2023-03-12T11:02:00.627Z,6.85
2023-03-12T11:04:32.767Z,7.00
2023-03-12T11:07:07.072Z,7.11
2023-03-12T11:09:33.500Z,7.17
2023-03-12T11:11:59.992Z,7.22
2023-03-12T11:14:29.978Z,7.23
2023-03-12T11:16:57.031Z,7.25
2023-03-12T11:19:32.776Z,7.35
2023-03-12T11:22:05.729Z,7.45
2023-03-12T11:24:32.795Z,7.51
2023-03-12T11:27:22.796Z,7.53
2023-03-12T11:29:51.149Z,7.55
2023-03-12T11:32:38.825Z,7.60
2023-03-12T11:35:11.426Z,7.64
2023-03-12T11:37:40.252Z,7.65
2023-03-12T11:40:28.133Z,7.73
2023-03-12T11:43:13.302Z,7.83
2023-03-12T11:46:12.602Z,7.83
2023-03-12T11:48:52.237Z,7.80
2023-03-12T11:51:33.006Z,7.77
2023-03-12T11:54:25.621Z,7.75
2023-03-12T11:56:55.539Z,7.76
2023-03-12T11:59:21.954Z,7.76
2023-03-12T12:02:19.290Z,7.83
2023-03-12T12:04:58.799Z,7.84
2023-03-12T12:08:02.094Z,7.90
2023-03-12T12:10:40.020Z,7.92
2023-03-12T12:13:22.478Z,7.92
2023-03-12T12:16:13.824Z,8.01
2023-03-12T12:18:43.199Z,8.11
2023-03-12T12:21:27.904Z,8.14
2023-03-12T12:24:09.706Z,8.10
2023-03-12T12:26:49.804Z,8.13
2023-03-12T12:29:30.955Z,8.14
2023-03-12T12:31:59.637Z,8.20
2023-03-12T12:34:57.332Z,8.32
2023-03-12T12:37:46.470Z,8.46
2023-03-12T12:40:30.920Z,8.57
2023-03-12T12:43:22.205Z,8.68
2023-03-12T12:45:52.375Z,8.81
2023-03-12T12:48:32.367Z,8.82
2023-03-12T12:51:02.058Z,8.80
2023-03-12T12:53:40.952Z,8.82
2023-03-12T12:56:33.919Z,8.78
2023-03-12T12:59:28.481Z,8.85
2023-03-12T13:01:57.079Z,8.98
2023-03-12T13:04:28.556Z,9.03
2023-03-12T13:07:01.269Z,9.08
2023-03-12T13:09:38.822Z,9.10
2023-03-12T13:12:46.975Z,9.26
2023-03-12T13:15:28.373Z,9.41
2023-03-12T13:18:06.787Z,9.39
2023-03-12T13:21:05.296Z,9.31
2023-03-12T13:23:39.153Z,9.29
2023-03-12T13:26:31.846Z,9.23
2023-03-12T13:29:13.070Z,9.22
2023-03-12T13:31:41.941Z,9.28
2023-03-12T13:34:17.250Z,9.27
2023-03-12T13:36:46.062Z,9.27
2023-03-12T13:39:15.563Z,9.29
2023-03-12T13:41:44.937Z,9.31
2023-03-12T13:44:23.612Z,9.36
2023-03-12T13:47:24.392Z,9.41
2023-03-12T13:50:05.152Z,9.57
2023-03-12T13:52:46.171Z,9.76
2023-03-12T13:55:30.843Z,9.91
2023-03-12T13:58:05.363Z,10.03
2023-03-12T14:00:41.450Z,10.13
2023-03-12T14:03:27.924Z,10.22
2023-03-12T14:06:09.250Z,10.29
2023-03-12T14:09:00.498Z,10.40
2023-03-12T14:11:44.137Z,10.56
2023-03-12T14:14:58.322Z,10.81
2023-03-12T14:17:28.687Z,10.95
2023-03-12T14:20:02.619Z,10.94
2023-03-12T14:22:32.999Z,10.90
2023-03-12T14:25:06.572Z,10.85
2023-03-12T14:27:34.238Z,10.80
2023-03-12T14:30:22.549Z,10.73
2023-03-12T14:32:52.511Z,10.65
2023-03-12T14:35:29.404Z,10.61
2023-03-12T14:38:08.387Z,10.57
2023-03-12T14:40:44.291Z,10.58
2023-03-12T14:43:41.594Z,10.62
2023-03-12T14:46:17.924Z,10.64
2023-03-12T14:48:48.084Z,10.70
2023-03-12T14:51:23.885Z,10.74
2023-03-12T14:53:51.469Z,10.78
2023-03-12T14:56:28.557Z,10.77
2023-03-12T14:58:55.291Z,10.71
2023-03-12T15:01:25.844Z,10.68
2023-03-12T15:03:59.239Z,10.65
2023-03-12T15:06:33.237Z,10.61
2023-03-12T15:09:05.263Z,10.57
2023-03-12T15:11:34.796Z,10.51
2023-03-12T15:14:06.596Z,10.47
2023-03-12T15:16:34.072Z,10.54
2023-03-12T15:19:02.549Z,10.60
2023-03-12T15:21:29.348Z,10.64
2023-03-12T15:23:55.957Z,10.66
2023-03-12T15:26:22.403Z,10.72
2023-03-12T15:29:26.184Z,10.72
2023-03-12T15:31:55.674Z,10.65
2023-03-12T15:34:33.126Z,10.60
2023-03-12T15:37:02.211Z,10.56
2023-03-12T15:39:32.069Z,10.50
2023-03-12T15:42:15.480Z,10.50
2023-03-12T15:44:51.300Z,10.50
2023-03-12T15:47:24.664Z,10.50
2023-03-12T15:49:56.316Z,10.48
2023-03-12T15:52:22.800Z,10.45
2023-03-12T15:55:05.767Z,10.38
2023-03-12T15:57:46.392Z,10.31
2023-03-12T16:00:16.004Z,10.28
2023-03-12T16:02:59.975Z,10.27
2023-03-12T16:05:39.083Z,10.25
2023-03-12T16:08:26.654Z,10.23
2023-03-12T16:10:53.697Z,10.22
2023-03-12T16:13:23.205Z,10.18
2023-03-12T16:15:49.876Z,10.17
2023-03-12T16:18:19.416Z,10.18
2023-03-12T16:20:47.004Z,10.17
2023-03-12T16:23:14.482Z,10.15
2023-03-12T16:25:53.092Z,10.12
2023-03-12T16:28:22.691Z,10.11
2023-03-12T16:30:51.189Z,10.09
2023-03-12T16:33:23.812Z,10.07
2023-03-12T16:35:51.170Z,10.05
2023-03-12T16:38:17.913Z,10.04
2023-03-12T16:40:47.815Z,10.02
2023-03-12T16:43:23.390Z,10.01
2023-03-12T16:45:51.710Z,9.99
2023-03-12T16:48:21.645Z,9.97
2023-03-12T16:50:51.478Z,9.95
2023-03-12T16:53:18.679Z,9.94
2023-03-12T16:55:52.143Z,9.91
2023-03-12T16:58:20.645Z,9.90
2023-03-12T17:00:48.354Z,9.88
2023-03-12T17:03:21.720Z,9.88
2023-03-12T17:05:48.378Z,9.85
2023-03-12T17:08:16.088Z,9.82
2023-03-12T17:10:42.724Z,9.81
2023-03-12T17:13:20.289Z,9.78
2023-03-12T17:15:47.620Z,9.79
2023-03-12T17:18:14.718Z,9.76
2023-03-12T17:20:42.220Z,9.76
2023-03-12T17:23:09.340Z,9.75
2023-03-12T17:25:39.091Z,9.72
2023-03-12T17:28:06.475Z,9.70
2023-03-12T17:30:34.413Z,9.67
2023-03-12T17:33:03.459Z,9.65
2023-03-12T17:35:30.342Z,9.62
2023-03-12T17:37:57.040Z,9.58
2023-03-12T17:40:23.602Z,9.57
2023-03-12T17:42:50.364Z,9.56
2023-03-12T17:45:17.184Z,9.53
2023-03-12T17:47:43.953Z,9.50
2023-03-12T17:50:12.841Z,9.49
2023-03-12T17:52:39.399Z,9.45
2023-03-12T17:55:11.023Z,9.42
2023-03-12T17:57:38.192Z,9.40
2023-03-12T18:00:11.020Z,9.39
2023-03-12T18:02:37.615Z,9.37
2023-03-12T18:05:04.332Z,9.37
2023-03-12T18:07:30.782Z,9.38
2023-03-12T18:09:57.281Z,9.40
2023-03-12T18:12:23.773Z,9.41
2023-03-12T18:14:50.380Z,9.44
2023-03-12T18:17:16.860Z,9.43
2023-03-12T18:19:43.610Z,9.41
2023-03-12T18:22:14.082Z,9.40
2023-03-12T18:24:41.594Z,9.42
2023-03-12T18:27:08.384Z,9.42
2023-03-12T18:29:36.863Z,9.42
2023-03-12T18:32:04.114Z,9.42
2023-03-12T18:34:30.688Z,9.45
2023-03-12T18:36:57.141Z,9.46
2023-03-12T18:39:23.752Z,9.48
2023-03-12T18:41:50.485Z,9.48
2023-03-12T18:44:17.005Z,9.49
2023-03-12T18:46:43.613Z,9.48
2023-03-12T18:49:12.354Z,9.49
2023-03-12T18:51:39.152Z,9.49
2023-03-12T18:54:05.715Z,9.51
2023-03-12T18:56:32.445Z,9.51
2023-03-12T18:58:59.068Z,9.50
2023-03-12T19:01:26.260Z,9.48
2023-03-12T19:03:52.813Z,9.47
2023-03-12T19:06:19.436Z,9.46
2023-03-12T19:08:46.011Z,9.44
2023-03-12T19:11:15.820Z,9.44
2023-03-12T19:13:42.927Z,9.43
2023-03-12T19:16:11.632Z,9.43
2023-03-12T19:18:39.746Z,9.41
2023-03-12T19:21:09.746Z,9.39
2023-03-12T19:23:36.594Z,9.37
2023-03-12T19:26:04.222Z,9.36
2023-03-12T19:28:31.310Z,9.34
2023-03-12T19:31:03.909Z,9.34
2023-03-12T19:33:31.816Z,9.34
2023-03-12T19:35:58.273Z,9.34
2023-03-12T19:38:25.539Z,9.35
2023-03-12T19:40:57.324Z,9.37
2023-03-12T19:43:24.976Z,9.39
2023-03-12T19:45:53.018Z,9.38
2023-03-12T19:48:19.658Z,9.39
2023-03-12T19:50:46.160Z,9.40
2023-03-12T19:53:13.692Z,9.42
2023-03-12T19:55:40.290Z,9.43
2023-03-12T19:58:08.184Z,9.43
2023-03-12T20:00:34.726Z,9.44
2023-03-12T20:03:01.392Z,9.44
2023-03-12T20:05:28.002Z,9.44
2023-03-12T20:07:54.623Z,9.44
2023-03-12T20:10:21.229Z,9.42
2023-03-12T20:12:47.669Z,9.41
2023-03-12T20:15:14.207Z,9.41
2023-03-12T20:17:40.732Z,9.40
2023-03-12T20:20:08.900Z,9.39
2023-03-12T20:22:36.393Z,9.40
2023-03-12T20:25:05.374Z,9.39
2023-03-12T20:27:34.041Z,9.38
2023-03-12T20:30:00.613Z,9.36
2023-03-12T20:32:28.686Z,9.35
2023-03-12T20:34:55.305Z,9.34
2023-03-12T20:37:21.739Z,9.33
2023-03-12T20:39:48.212Z,9.33
2023-03-12T20:42:14.807Z,9.32
2023-03-12T20:44:41.754Z,9.30
2023-03-12T20:47:08.196Z,9.31
2023-03-12T20:49:34.719Z,9.30
2023-03-12T20:52:01.330Z,9.28
2023-03-12T20:54:27.780Z,9.28
2023-03-12T20:56:54.261Z,9.27
2023-03-12T20:59:20.712Z,9.26
2023-03-12T21:01:47.268Z,9.27
2023-03-12T21:04:13.952Z,9.28
2023-03-12T21:06:40.424Z,9.28
2023-03-12T21:09:07.306Z,9.29
2023-03-12T21:11:34.074Z,9.28
2023-03-12T21:14:00.522Z,9.28
2023-03-12T21:16:27.162Z,9.27
2023-03-12T21:18:57.482Z,9.27
2023-03-12T21:21:24.042Z,9.27
2023-03-12T21:23:50.654Z,9.28
2023-03-12T21:26:18.604Z,9.27
2023-03-12T21:28:45.525Z,9.26
2023-03-12T21:31:17.785Z,9.27
2023-03-12T21:33:44.305Z,9.26
2023-03-12T21:36:13.453Z,9.26
2023-03-12T21:38:42.617Z,9.26
2023-03-12T21:41:14.480Z,9.25
2023-03-12T21:43:41.674Z,9.24
2023-03-12T21:46:16.872Z,9.22
2023-03-12T21:48:45.948Z,9.21
2023-03-12T21:51:15.087Z,9.19
2023-03-12T21:53:41.929Z,9.19
2023-03-12T21:56:08.831Z,9.16
2023-03-12T21:58:36.448Z,9.16
2023-03-12T22:01:05.806Z,9.15
2023-03-12T22:03:32.677Z,9.14
2023-03-12T22:05:59.601Z,9.10
2023-03-12T22:08:26.053Z,9.09
2023-03-12T22:10:52.580Z,9.09
2023-03-12T22:13:19.069Z,9.07
2023-03-12T22:15:56.684Z,9.05
2023-03-12T22:18:24.025Z,9.03
2023-03-12T22:20:52.183Z,9.02
2023-03-12T22:23:18.805Z,9.00
2023-03-12T22:25:45.548Z,9.00
2023-03-12T22:28:12.124Z,9.01
2023-03-12T22:30:38.571Z,9.01
2023-03-12T22:33:05.007Z,9.01
2023-03-12T22:35:31.567Z,9.00
2023-03-12T22:37:58.329Z,9.00
2023-03-12T22:40:26.040Z,8.98
2023-03-12T22:42:56.153Z,8.98
2023-03-12T22:45:22.922Z,8.96
2023-03-12T22:47:49.364Z,8.96
2023-03-12T22:50:15.999Z,8.94
2023-03-12T22:52:42.559Z,8.92
2023-03-12T22:55:09.293Z,8.92
2023-03-12T22:57:36.864Z,8.89
2023-03-12T23:00:07.599Z,8.88
2023-03-12T23:02:34.063Z,8.88
2023-03-12T23:05:00.569Z,8.88
2023-03-12T23:07:27.139Z,8.86
2023-03-12T23:09:53.594Z,8.86
2023-03-12T23:12:20.293Z,8.84
2023-03-12T23:14:46.871Z,8.84
2023-03-12T23:17:13.417Z,8.82
2023-03-12T23:19:42.647Z,8.82
2023-03-12T23:22:09.828Z,8.81
2023-03-12T23:24:37.454Z,8.80
2023-03-12T23:27:04.706Z,8.80
2023-03-12T23:29:31.649Z,8.79
2023-03-12T23:31:58.226Z,8.77
2023-03-12T23:34:24.867Z,8.76
2023-03-12T23:36:51.362Z,8.75
2023-03-12T23:39:17.889Z,8.75
2023-03-12T23:41:44.361Z,8.74
2023-03-12T23:44:10.786Z,8.71
2023-03-12T23:46:37.254Z,8.71
2023-03-12T23:49:03.741Z,8.71
2023-03-12T23:51:32.987Z,8.70
2023-03-12T23:54:05.318Z,8.70
2023-03-12T23:56:34.737Z,8.68
2023-03-12T23:59:01.310Z,8.69
